Buoy 13570

sailwx.info

Track history (hours):
 
Tides and Currents Weather Stations Pressure Air Temp Water Temp Dewpoint Dewpoint Depression Visibility Wind Speed Wind Dir Waves Ship Positions

Drifting buoy 13570

Last reported at 2014-Oct-25 20:00 UTC. Time now 2014-Oct-25 22:09 UTC.
Position N 33°56' W 029°40'.

Barometer 1017.0 mb
Water temperature 22.3 ° C

Date/timePositionNaut miles runAvg speedWind from/ knotsBaromVisibWave heightAir tempDewpointWater temp
2014-Oct-25 20:00N 33°56' W 029°40'0 0.3 1017.0 22.3
2014-Oct-25 19:00N 33°55' W 029°40'0 0.0 1016.7 22.4
2014-Oct-25 18:00N 33°55' W 029°40'0 0.4 1016.6 22.4
2014-Oct-25 17:00N 33°55' W 029°40'1 1.2 1016.7 22.4
2014-Oct-25 16:00N 33°55' W 029°39'1 0.3 1016.8 22.4
2014-Oct-25 14:00N 33°55' W 029°39'1 1.2 1017.4 22.3
2014-Oct-25 13:00N 33°55' W 029°38'0 0.4 1018.0 22.3
2014-Oct-25 12:00N 33°55' W 029°37'0 0.0 1018.1 22.3
2014-Oct-25 11:00N 33°55' W 029°37'1 1.1 1017.8 22.2
2014-Oct-25 10:00N 33°55' W 029°38'1 0.5 1017.7 22.2
2014-Oct-25 08:00N 33°54' W 029°37'0 0.0 1016.3 22.2
2014-Oct-25 07:00N 33°54' W 029°37'0 0.2 1016.0 22.2
2014-Oct-25 06:00N 33°54' W 029°37'1 0.8 1016.0 22.2
2014-Oct-25 05:00N 33°55' W 029°36'0 0.0 1016.0 22.2
2014-Oct-25 04:00N 33°55' W 029°36'1 0.8 1016.2 22.2
2014-Oct-25 03:00N 33°55' W 029°36'1 0.1 1016.4 22.2
2014-Oct-24 23:00N 33°55' W 029°37'0 0.0 1017.4 22.3
2014-Oct-24 22:00N 33°55' W 029°37'2 0.7 1017.2 22.3
2014-Oct-24 19:00N 33°53' W 029°36'1 0.5 1015.7 22.4
2014-Oct-24 18:00N 33°53' W 029°36'1 1.1 1015.4 22.4
2014-Oct-24 17:00N 33°52' W 029°35'1 0.8 1014.9 22.4
2014-Oct-24 16:00N 33°52' W 029°34'1 0.4 1014.7 22.4
2014-Oct-24 14:00N 33°52' W 029°33'1 0.8 1015.2 22.3
2014-Oct-24 13:00N 33°53' W 029°32'0 0.2 1015.6 22.3
2014-Oct-24 12:00N 33°53' W 029°33'0 0.0 1015.9 22.3
2014-Oct-24 11:00N 33°53' W 029°33'1 0.5 1015.5 22.2
2014-Oct-24 08:00N 33°52' W 029°31'0 0.0 1013.6 22.2
2014-Oct-24 07:00N 33°52' W 029°31'2 1.9 1013.4 22.2
2014-Oct-24 06:00N 33°51' W 029°29'1 1.1 1012.8 22.2
2014-Oct-24 05:00N 33°52' W 029°30'0 0.3 1012.5 22.2
2014-Oct-24 04:00N 33°52' W 029°30'0 0.0 1012.7 22.2
2014-Oct-24 03:00N 33°52' W 029°30'0 0.0 1012.9 22.2
2014-Oct-24 02:00N 33°52' W 029°30'1 0.6 1012.7 22.3
2014-Oct-24 00:00N 33°53' W 029°29'1 1.1 1012.9 22.3
2014-Oct-23 23:00N 33°52' W 029°29'0 0.0 1013.1 22.3
2014-Oct-23 22:00N 33°52' W 029°29'1 0.6 1012.8 22.3
2014-Oct-23 20:00N 33°51' W 029°28'0 0.0 1011.4 22.3
2014-Oct-23 19:00N 33°51' W 029°28'0 0.4 1010.6 22.3
2014-Oct-23 18:00N 33°51' W 029°29'2 0.4 1010.1 22.3
2014-Oct-23 14:00N 33°51' W 029°27'1 0.8 1009.6 22.2
2014-Oct-23 13:00N 33°50' W 029°27'1 0.6 1009.8 22.2
2014-Oct-23 12:00N 33°50' W 029°27'0 0.0 1009.9 22.2
2014-Oct-23 11:00N 33°50' W 029°27'0 0.3 1010.1 22.2
2014-Oct-23 10:00N 33°50' W 029°26'0 0.0 1009.7 22.2
2014-Oct-23 07:00N 33°51' W 029°26'0 0.2 1009.2 22.2
2014-Oct-23 06:00N 33°50' W 029°27'0 0.3 1008.9 22.2
2014-Oct-23 05:00N 33°50' W 029°27'0 0.1 1009.3 22.2
2014-Oct-23 03:00N 33°50' W 029°27'2 0.4 1009.6 22.2
2014-Oct-22 22:00N 33°49' W 029°25'0 0.0 1009.6 22.2
2014-Oct-22 21:00N 33°49' W 029°25'1 0.3 1009.2 22.2
2014-Oct-22 19:00N 33°48' W 029°25'1 0.3 1008.1 22.3
2014-Oct-22 17:00N 33°49' W 029°25'0 0.4 1007.8 22.3
2014-Oct-22 16:00N 33°49' W 029°25'0 0.2 1007.3 22.3
2014-Oct-22 15:00N 33°49' W 029°25'1 0.3 1007.4 22.3
2014-Oct-22 13:00N 33°49' W 029°24'1 0.3 1007.7 22.3
2014-Oct-22 11:00N 33°49' W 029°25'1 0.3 1007.5 22.3
2014-Oct-22 09:00N 33°49' W 029°25'1 0.9 1005.9 22.2
2014-Oct-22 08:00N 33°50' W 029°24'0 0.3 1005.2 22.2
2014-Oct-22 07:00N 33°49' W 029°24'0 0.2 1004.7 22.2
2014-Oct-22 05:00N 33°49' W 029°24'0 0.1 1004.4 22.2
2014-Oct-22 03:00N 33°50' W 029°24'2 0.7 1004.5 22.2
2014-Oct-22 00:00N 33°48' W 029°22'0 0.1 1004.7 22.2
2014-Oct-21 23:00N 33°48' W 029°22'0 0.0 1005.0 22.2
2014-Oct-21 22:00N 33°48' W 029°22'1 1.1 1004.7 22.2
2014-Oct-21 21:00N 33°49' W 029°21'1 1.4 1003.9 22.2
2014-Oct-21 20:00N 33°49' W 029°19'0 0.2 1003.3 22.2
2014-Oct-21 19:00N 33°50' W 029°19'1 0.5 1002.8 22.2
2014-Oct-21 17:00N 33°50' W 029°18'1 0.1 1003.1 22.2
2014-Oct-21 12:00N 33°50' W 029°18'3 1.1 1007.0 22.2
2014-Oct-21 09:00N 33°51' W 029°14'0 0.0 1007.7 22.2
2014-Oct-21 08:00N 33°51' W 029°14'0 0.4 1007.9 22.2
2014-Oct-21 07:00N 33°52' W 029°14'1 0.5 1008.0 22.3
2014-Oct-21 06:00N 33°52' W 029°14'1 1.3 1008.2 22.3
2014-Oct-21 05:00N 33°52' W 029°13'0 0.3 1008.5 22.3
2014-Oct-21 04:00N 33°52' W 029°12'3 0.6 1009.1 22.4
2014-Oct-20 22:00N 33°54' W 029°09'0 0.1 1013.3 22.4
2014-Oct-20 21:00N 33°54' W 029°09'2 2.0 1013.3 22.4
2014-Oct-20 20:00N 33°55' W 029°07'1 0.8 1013.5 22.4
2014-Oct-20 19:00N 33°56' W 029°08'0 0.0 1013.2 22.4
2014-Oct-20 18:00N 33°56' W 029°08'2 1.9 1013.5 22.4
2014-Oct-20 17:00N 33°57' W 029°06'1 1.2 1013.7 22.5
2014-Oct-20 16:00N 33°56' W 029°07'1 1.2 1013.9 22.5
2014-Oct-20 15:00N 33°57' W 029°06'0 0.2 1014.3 22.5
2014-Oct-20 13:00N 33°58' W 029°06'1 1.0 1015.8 22.5
2014-Oct-20 12:00N 33°58' W 029°05'1 0.8 1016.4 22.5
2014-Oct-20 11:00N 33°59' W 029°05'0 0.4 1016.7 22.5
2014-Oct-20 10:00N 33°58' W 029°04'0 0.0 1016.7 22.5
2014-Oct-20 09:00N 33°58' W 029°04'0 0.5 1016.8 22.5
2014-Oct-20 08:00N 33°58' W 029°04'1 0.7 1016.7 22.5
2014-Oct-20 07:00N 33°59' W 029°03'0 0.3 1016.7 22.5
2014-Oct-20 06:00N 33°59' W 029°03'0 0.2 1017.1 22.5
2014-Oct-20 05:00N 33°59' W 029°03'1 1.2 1017.1 22.5
2014-Oct-20 04:00N 33°59' W 029°01'3 0.8 1017.0 22.6
2014-Oct-20 00:00N 34°02' W 028°59'0 0.2 1018.9 22.6
2014-Oct-19 23:00N 34°02' W 028°59'1 1.1 1019.3 22.6
2014-Oct-19 22:00N 34°03' W 028°59'1 0.3 1019.4 22.6
2014-Oct-19 20:00N 34°03' W 028°58'0 0.5 1019.2 22.7
2014-Oct-19 19:00N 34°03' W 028°59'0 0.2 1019.1 22.7
2014-Oct-19 18:00N 34°03' W 028°59'0 0.0 1018.8 22.7
2014-Oct-19 17:00N 34°03' W 028°59'1 1.5 1018.8 22.7
2014-Oct-19 16:00N 34°03' W 028°57'0 0.2 1018.8 22.7
2014-Oct-19 15:00N 34°03' W 028°57'1 0.5 1019.0 22.7
2014-Oct-19 14:00N 34°04' W 028°56'0 0.2 1019.4 22.8
2014-Oct-19 13:00N 34°04' W 028°56'1 0.4 1019.9 22.7
2014-Oct-19 11:00N 34°04' W 028°55'0 0.3 1020.2 22.8
2014-Oct-19 10:00N 34°05' W 028°55'1 0.4 1020.1 22.8
2014-Oct-19 08:00N 34°05' W 028°54'1 0.5 1019.2 22.8
2014-Oct-19 07:00N 34°05' W 028°53'0 0.4 1018.7 22.8
2014-Oct-19 06:00N 34°05' W 028°53'2 0.8 1018.5 22.8
2014-Oct-19 04:00N 34°06' W 028°51'2 0.6 1018.3 22.8
2014-Oct-19 01:00N 34°08' W 028°51'0 0.0 1018.3 22.8
2014-Oct-19 00:00N 34°08' W 028°51'1 1.3 1018.5 22.8
2014-Oct-18 23:00N 34°09' W 028°51'1 1.1 1018.4 22.9
2014-Oct-18 22:00N 34°10' W 028°52'0 0.0 1018.0 22.9
2014-Oct-18 21:00N 34°10' W 028°52'2 0.8 1017.2 22.9
2014-Oct-18 19:00N 34°09' W 028°50'0 0.0 1015.7 22.9
2014-Oct-18 18:00N 34°09' W 028°50'0 0.0 1015.1 22.9
2014-Oct-18 16:00N 34°09' W 028°50'0 0.0 1014.7 22.9
2014-Oct-18 15:00N 34°09' W 028°50'1 1.0 1014.5 23.0
2014-Oct-18 14:00N 34°09' W 028°49'2 0.8 1014.3 23.0
2014-Oct-18 11:00N 34°11' W 028°47'0 0.0 1014.4 23.0
2014-Oct-18 10:00N 34°11' W 028°47'1 0.9 1014.2 23.0
2014-Oct-18 09:00N 34°12' W 028°47'1 1.3 1013.2 23.0
2014-Oct-18 08:00N 34°13' W 028°46'0 0.0 1012.5 23.0
2014-Oct-18 07:00N 34°13' W 028°46'2 1.6 1012.4 23.0
2014-Oct-18 06:00N 34°15' W 028°48'1 0.7 1012.1 23.0
2014-Oct-18 05:00N 34°15' W 028°47'2 0.3 1011.4 23.0
2014-Oct-17 23:00N 34°17' W 028°47'0 0.0 1012.3 23.1
2014-Oct-17 22:00N 34°17' W 028°47'0 0.1 1012.2 23.1
2014-Oct-17 21:00N 34°17' W 028°47'0 0.5 1011.9 23.1
2014-Oct-17 20:00N 34°17' W 028°48'0 0.2 1011.5 23.1
2014-Oct-17 18:00N 34°17' W 028°48'1 1.0 1010.8 23.1
2014-Oct-17 17:00N 34°17' W 028°47'0 0.0 1010.5 23.1
2014-Oct-17 16:00N 34°17' W 028°47'1 0.6 1010.2 23.1
2014-Oct-17 15:00N 34°17' W 028°46'2 0.7 1010.4 23.1
2014-Oct-17 12:00N 34°18' W 028°44'3 1.7 1011.3 23.1
2014-Oct-17 10:00N 34°22' W 028°45'0 0.2 1010.4 23.1
2014-Oct-17 08:00N 34°21' W 028°45'1 1.0 1009.0 23.1
2014-Oct-17 07:00N 34°22' W 028°46'2 2.0 1008.6 23.1
2014-Oct-17 06:00N 34°21' W 028°44'0 0.0 1008.3 23.1
2014-Oct-17 04:00N 34°21' W 028°44'3 1.5 1009.0 23.1
2014-Oct-17 02:00N 34°24' W 028°46'1 0.4 1010.1 23.2
2014-Oct-16 23:00N 34°24' W 028°47'2 0.5 1011.1 23.2
2014-Oct-16 19:00N 34°26' W 028°48'0 0.0 1011.5 23.2
2014-Oct-16 18:00N 34°26' W 028°48'1 0.7 1011.8 23.2
2014-Oct-16 17:00N 34°26' W 028°49'1 0.1 1012.0 23.2
2014-Oct-16 12:00N 34°27' W 028°49'1 0.9 1014.4 23.2
2014-Oct-16 11:00N 34°27' W 028°48'0 0.0 1014.3 23.2
2014-Oct-16 10:00N 34°27' W 028°48'1 1.3 1014.0 23.2
2014-Oct-16 09:00N 34°28' W 028°49'1 0.9 1013.2 23.2
2014-Oct-16 08:00N 34°29' W 028°49'0 0.0 1013.0 23.2
2014-Oct-16 07:00N 34°29' W 028°49'2 0.4 1012.5 23.2
2014-Oct-16 03:00N 34°30' W 028°50'1 0.3 1011.7 23.2
2014-Oct-15 22:00N 34°31' W 028°49'   1010.5 23.3
Track history (hours):
 
Tides and Currents Weather Stations Pressure Air Temp Water Temp Dewpoint Dewpoint Depression Visibility Wind Speed Wind Dir Waves Ship Positions

Drifting buoy 13570

Last reported at 2014-Oct-25 20:00 UTC. Time now 2014-Oct-25 22:09 UTC.
Position N 33°56' W 029°40'.

Barometer 1017.0 mb
Water temperature 22.3 ° C

Date/timePositionNaut miles runAvg speedWind from/ knotsBaromVisibWave heightAir tempDewpointWater temp
2014-Oct-25 20:00N 33°56' W 029°40'0 0.3 1017.0 22.3
2014-Oct-25 19:00N 33°55' W 029°40'0 0.0 1016.7 22.4
2014-Oct-25 18:00N 33°55' W 029°40'0 0.4 1016.6 22.4
2014-Oct-25 17:00N 33°55' W 029°40'1 1.2 1016.7 22.4
2014-Oct-25 16:00N 33°55' W 029°39'1 0.3 1016.8 22.4
2014-Oct-25 14:00N 33°55' W 029°39'1 1.2 1017.4 22.3
2014-Oct-25 13:00N 33°55' W 029°38'0 0.4 1018.0 22.3
2014-Oct-25 12:00N 33°55' W 029°37'0 0.0 1018.1 22.3
2014-Oct-25 11:00N 33°55' W 029°37'1 1.1 1017.8 22.2
2014-Oct-25 10:00N 33°55' W 029°38'1 0.5 1017.7 22.2
2014-Oct-25 08:00N 33°54' W 029°37'0 0.0 1016.3 22.2
2014-Oct-25 07:00N 33°54' W 029°37'0 0.2 1016.0 22.2
2014-Oct-25 06:00N 33°54' W 029°37'1 0.8 1016.0 22.2
2014-Oct-25 05:00N 33°55' W 029°36'0 0.0 1016.0 22.2
2014-Oct-25 04:00N 33°55' W 029°36'1 0.8 1016.2 22.2
2014-Oct-25 03:00N 33°55' W 029°36'1 0.1 1016.4 22.2
2014-Oct-24 23:00N 33°55' W 029°37'0 0.0 1017.4 22.3
2014-Oct-24 22:00N 33°55' W 029°37'2 0.7 1017.2 22.3
2014-Oct-24 19:00N 33°53' W 029°36'1 0.5 1015.7 22.4
2014-Oct-24 18:00N 33°53' W 029°36'1 1.1 1015.4 22.4
2014-Oct-24 17:00N 33°52' W 029°35'1 0.8 1014.9 22.4
2014-Oct-24 16:00N 33°52' W 029°34'1 0.4 1014.7 22.4
2014-Oct-24 14:00N 33°52' W 029°33'1 0.8 1015.2 22.3
2014-Oct-24 13:00N 33°53' W 029°32'0 0.2 1015.6 22.3
2014-Oct-24 12:00N 33°53' W 029°33'0 0.0 1015.9 22.3
2014-Oct-24 11:00N 33°53' W 029°33'1 0.5 1015.5 22.2
2014-Oct-24 08:00N 33°52' W 029°31'0 0.0 1013.6 22.2
2014-Oct-24 07:00N 33°52' W 029°31'2 1.9 1013.4 22.2
2014-Oct-24 06:00N 33°51' W 029°29'1 1.1 1012.8 22.2
2014-Oct-24 05:00N 33°52' W 029°30'0 0.3 1012.5 22.2
2014-Oct-24 04:00N 33°52' W 029°30'0 0.0 1012.7 22.2
2014-Oct-24 03:00N 33°52' W 029°30'0 0.0 1012.9 22.2
2014-Oct-24 02:00N 33°52' W 029°30'1 0.6 1012.7 22.3
2014-Oct-24 00:00N 33°53' W 029°29'1 1.1 1012.9 22.3
2014-Oct-23 23:00N 33°52' W 029°29'0 0.0 1013.1 22.3
2014-Oct-23 22:00N 33°52' W 029°29'1 0.6 1012.8 22.3
2014-Oct-23 20:00N 33°51' W 029°28'0 0.0 1011.4 22.3
2014-Oct-23 19:00N 33°51' W 029°28'0 0.4 1010.6 22.3
2014-Oct-23 18:00N 33°51' W 029°29'2 0.4 1010.1 22.3
2014-Oct-23 14:00N 33°51' W 029°27'1 0.8 1009.6 22.2
2014-Oct-23 13:00N 33°50' W 029°27'1 0.6 1009.8 22.2
2014-Oct-23 12:00N 33°50' W 029°27'0 0.0 1009.9 22.2
2014-Oct-23 11:00N 33°50' W 029°27'0 0.3 1010.1 22.2
2014-Oct-23 10:00N 33°50' W 029°26'0 0.0 1009.7 22.2
2014-Oct-23 07:00N 33°51' W 029°26'0 0.2 1009.2 22.2
2014-Oct-23 06:00N 33°50' W 029°27'0 0.3 1008.9 22.2
2014-Oct-23 05:00N 33°50' W 029°27'0 0.1 1009.3 22.2
2014-Oct-23 03:00N 33°50' W 029°27'2 0.4 1009.6 22.2
2014-Oct-22 22:00N 33°49' W 029°25'0 0.0 1009.6 22.2
2014-Oct-22 21:00N 33°49' W 029°25'1 0.3 1009.2 22.2
2014-Oct-22 19:00N 33°48' W 029°25'1 0.3 1008.1 22.3
2014-Oct-22 17:00N 33°49' W 029°25'0 0.4 1007.8 22.3
2014-Oct-22 16:00N 33°49' W 029°25'0 0.2 1007.3 22.3
2014-Oct-22 15:00N 33°49' W 029°25'1 0.3 1007.4 22.3
2014-Oct-22 13:00N 33°49' W 029°24'1 0.3 1007.7 22.3
2014-Oct-22 11:00N 33°49' W 029°25'1 0.3 1007.5 22.3
2014-Oct-22 09:00N 33°49' W 029°25'1 0.9 1005.9 22.2
2014-Oct-22 08:00N 33°50' W 029°24'0 0.3 1005.2 22.2
2014-Oct-22 07:00N 33°49' W 029°24'0 0.2 1004.7 22.2
2014-Oct-22 05:00N 33°49' W 029°24'0 0.1 1004.4 22.2
2014-Oct-22 03:00N 33°50' W 029°24'2 0.7 1004.5 22.2
2014-Oct-22 00:00N 33°48' W 029°22'0 0.1 1004.7 22.2
2014-Oct-21 23:00N 33°48' W 029°22'0 0.0 1005.0 22.2
2014-Oct-21 22:00N 33°48' W 029°22'1 1.1 1004.7 22.2
2014-Oct-21 21:00N 33°49' W 029°21'1 1.4 1003.9 22.2
2014-Oct-21 20:00N 33°49' W 029°19'0 0.2 1003.3 22.2
2014-Oct-21 19:00N 33°50' W 029°19'1 0.5 1002.8 22.2
2014-Oct-21 17:00N 33°50' W 029°18'1 0.1 1003.1 22.2
2014-Oct-21 12:00N 33°50' W 029°18'3 1.1 1007.0 22.2
2014-Oct-21 09:00N 33°51' W 029°14'0 0.0 1007.7 22.2
2014-Oct-21 08:00N 33°51' W 029°14'0 0.4 1007.9 22.2
2014-Oct-21 07:00N 33°52' W 029°14'1 0.5 1008.0 22.3
2014-Oct-21 06:00N 33°52' W 029°14'1 1.3 1008.2 22.3
2014-Oct-21 05:00N 33°52' W 029°13'0 0.3 1008.5 22.3
2014-Oct-21 04:00N 33°52' W 029°12'3 0.6 1009.1 22.4
2014-Oct-20 22:00N 33°54' W 029°09'0 0.1 1013.3 22.4
2014-Oct-20 21:00N 33°54' W 029°09'2 2.0 1013.3 22.4
2014-Oct-20 20:00N 33°55' W 029°07'1 0.8 1013.5 22.4
2014-Oct-20 19:00N 33°56' W 029°08'0 0.0 1013.2 22.4
2014-Oct-20 18:00N 33°56' W 029°08'2 1.9 1013.5 22.4
2014-Oct-20 17:00N 33°57' W 029°06'1 1.2 1013.7 22.5
2014-Oct-20 16:00N 33°56' W 029°07'1 1.2 1013.9 22.5
2014-Oct-20 15:00N 33°57' W 029°06'0 0.2 1014.3 22.5
2014-Oct-20 13:00N 33°58' W 029°06'1 1.0 1015.8 22.5
2014-Oct-20 12:00N 33°58' W 029°05'1 0.8 1016.4 22.5
2014-Oct-20 11:00N 33°59' W 029°05'0 0.4 1016.7 22.5
2014-Oct-20 10:00N 33°58' W 029°04'0 0.0 1016.7 22.5
2014-Oct-20 09:00N 33°58' W 029°04'0 0.5 1016.8 22.5
2014-Oct-20 08:00N 33°58' W 029°04'1 0.7 1016.7 22.5
2014-Oct-20 07:00N 33°59' W 029°03'0 0.3 1016.7 22.5
2014-Oct-20 06:00N 33°59' W 029°03'0 0.2 1017.1 22.5
2014-Oct-20 05:00N 33°59' W 029°03'1 1.2 1017.1 22.5
2014-Oct-20 04:00N 33°59' W 029°01'3 0.8 1017.0 22.6
2014-Oct-20 00:00N 34°02' W 028°59'0 0.2 1018.9 22.6
2014-Oct-19 23:00N 34°02' W 028°59'1 1.1 1019.3 22.6
2014-Oct-19 22:00N 34°03' W 028°59'1 0.3 1019.4 22.6
2014-Oct-19 20:00N 34°03' W 028°58'0 0.5 1019.2 22.7
2014-Oct-19 19:00N 34°03' W 028°59'0 0.2 1019.1 22.7
2014-Oct-19 18:00N 34°03' W 028°59'0 0.0 1018.8 22.7
2014-Oct-19 17:00N 34°03' W 028°59'1 1.5 1018.8 22.7
2014-Oct-19 16:00N 34°03' W 028°57'0 0.2 1018.8 22.7
2014-Oct-19 15:00N 34°03' W 028°57'1 0.5 1019.0 22.7
2014-Oct-19 14:00N 34°04' W 028°56'0 0.2 1019.4 22.8
2014-Oct-19 13:00N 34°04' W 028°56'1 0.4 1019.9 22.7
2014-Oct-19 11:00N 34°04' W 028°55'0 0.3 1020.2 22.8
2014-Oct-19 10:00N 34°05' W 028°55'1 0.4 1020.1 22.8
2014-Oct-19 08:00N 34°05' W 028°54'1 0.5 1019.2 22.8
2014-Oct-19 07:00N 34°05' W 028°53'0 0.4 1018.7 22.8
2014-Oct-19 06:00N 34°05' W 028°53'2 0.8 1018.5 22.8
2014-Oct-19 04:00N 34°06' W 028°51'2 0.6 1018.3 22.8
2014-Oct-19 01:00N 34°08' W 028°51'0 0.0 1018.3 22.8
2014-Oct-19 00:00N 34°08' W 028°51'1 1.3 1018.5 22.8
2014-Oct-18 23:00N 34°09' W 028°51'1 1.1 1018.4 22.9
2014-Oct-18 22:00N 34°10' W 028°52'0 0.0 1018.0 22.9
2014-Oct-18 21:00N 34°10' W 028°52'2 0.8 1017.2 22.9
2014-Oct-18 19:00N 34°09' W 028°50'0 0.0 1015.7 22.9
2014-Oct-18 18:00N 34°09' W 028°50'0 0.0 1015.1 22.9
2014-Oct-18 16:00N 34°09' W 028°50'0 0.0 1014.7 22.9
2014-Oct-18 15:00N 34°09' W 028°50'1 1.0 1014.5 23.0
2014-Oct-18 14:00N 34°09' W 028°49'2 0.8 1014.3 23.0
2014-Oct-18 11:00N 34°11' W 028°47'0 0.0 1014.4 23.0
2014-Oct-18 10:00N 34°11' W 028°47'1 0.9 1014.2 23.0
2014-Oct-18 09:00N 34°12' W 028°47'1 1.3 1013.2 23.0
2014-Oct-18 08:00N 34°13' W 028°46'0 0.0 1012.5 23.0
2014-Oct-18 07:00N 34°13' W 028°46'2 1.6 1012.4 23.0
2014-Oct-18 06:00N 34°15' W 028°48'1 0.7 1012.1 23.0
2014-Oct-18 05:00N 34°15' W 028°47'2 0.3 1011.4 23.0
2014-Oct-17 23:00N 34°17' W 028°47'0 0.0 1012.3 23.1
2014-Oct-17 22:00N 34°17' W 028°47'0 0.1 1012.2 23.1
2014-Oct-17 21:00N 34°17' W 028°47'0 0.5 1011.9 23.1
2014-Oct-17 20:00N 34°17' W 028°48'0 0.2 1011.5 23.1
2014-Oct-17 18:00N 34°17' W 028°48'1 1.0 1010.8 23.1
2014-Oct-17 17:00N 34°17' W 028°47'0 0.0 1010.5 23.1
2014-Oct-17 16:00N 34°17' W 028°47'1 0.6 1010.2 23.1
2014-Oct-17 15:00N 34°17' W 028°46'2 0.7 1010.4 23.1
2014-Oct-17 12:00N 34°18' W 028°44'3 1.7 1011.3 23.1
2014-Oct-17 10:00N 34°22' W 028°45'0 0.2 1010.4 23.1
2014-Oct-17 08:00N 34°21' W 028°45'1 1.0 1009.0 23.1
2014-Oct-17 07:00N 34°22' W 028°46'2 2.0 1008.6 23.1
2014-Oct-17 06:00N 34°21' W 028°44'0 0.0 1008.3 23.1
2014-Oct-17 04:00N 34°21' W 028°44'3 1.5 1009.0 23.1
2014-Oct-17 02:00N 34°24' W 028°46'1 0.4 1010.1 23.2
2014-Oct-16 23:00N 34°24' W 028°47'2 0.5 1011.1 23.2
2014-Oct-16 19:00N 34°26' W 028°48'0 0.0 1011.5 23.2
2014-Oct-16 18:00N 34°26' W 028°48'1 0.7 1011.8 23.2
2014-Oct-16 17:00N 34°26' W 028°49'1 0.1 1012.0 23.2
2014-Oct-16 12:00N 34°27' W 028°49'1 0.9 1014.4 23.2
2014-Oct-16 11:00N 34°27' W 028°48'0 0.0 1014.3 23.2
2014-Oct-16 10:00N 34°27' W 028°48'1 1.3 1014.0 23.2
2014-Oct-16 09:00N 34°28' W 028°49'1 0.9 1013.2 23.2
2014-Oct-16 08:00N 34°29' W 028°49'0 0.0 1013.0 23.2
2014-Oct-16 07:00N 34°29' W 028°49'2 0.4 1012.5 23.2
2014-Oct-16 03:00N 34°30' W 028°50'1 0.3 1011.7 23.2
2014-Oct-15 22:00N 34°31' W 028°49'   1010.5 23.3

Dump ship's entire track history